PWSweather.com
Personal Weather Stations
Station Observations
ILOMBARD30
LodiIT 26900

LodiIT 26900

Lat: 45.2993, Lon: 9.5207

Elevation: 255

Station Type: Davis Vantege Pro2 Plus 24h

http://www.meteo-iw2gob.it

Latest ConditionsUpdated 7:25:01 PM GMT+01:01 Tuesday, Nov 12, 2019
Currently Today's Max Today's Min Today's Average
Temperature 47.4°F8.6°C 47.6°F8.7°C 44.9°F7.2°C 46.0°F7.8°C
Dew Point 44.6°F7.0°C 44.8°F7.1°C 41.2°F5.1°C 42.6°F5.9°C
Winds 1.2 mph S1.9 kmh S 6.9 mph -11.1 kmh - - 3.2 mph 5.1 kmh
Wind Gusts 2.3 mph3.7 kmh 11.5 mph18.5 kmh - -
Humidity 90% 90% 86% 88%
Pressure 29.41 in995.9 mb 29.76 in1007.8 mb 29.41 in995.9 mb -
Precipitation - 0.35 in8.9 mm - -
Hour Temp Dew Point Humidity Winds Wind Gusts Pressure Precip Precip Rate Daily Precip Total
07:25 PM 47.4°F8.6°C 44.6°F7.0°C 90% 1.2 mph S1.9 kmh S 2.3 mph3.7 kmh 29.41 in995.9 mb - 0.00 in0.0 mm 0.35 in8.9 mm
07:20 PM 47.4°F8.6°C 44.6°F7.0°C 90% 2.3 mph S3.7 kmh S 2.3 mph3.7 kmh 29.41 in995.9 mb - 0.00 in0.0 mm 0.35 in8.9 mm
07:15 PM 47.4°F8.6°C 44.6°F7.0°C 90% 2.3 mph SSW3.7 kmh SSW 3.5 mph5.6 kmh 29.41 in995.9 mb - 0.00 in0.0 mm 0.35 in8.9 mm
07:10 PM 47.4°F8.6°C 44.6°F7.0°C 90% 2.3 mph SW3.7 kmh SW 3.5 mph5.6 kmh 29.41 in995.9 mb - 0.00 in0.0 mm 0.35 in8.9 mm
07:05 PM 47.4°F8.6°C 44.6°F7.0°C 90% 2.3 mph SW3.7 kmh SW 3.5 mph5.6 kmh 29.41 in995.9 mb - 0.00 in0.0 mm 0.35 in8.9 mm
07:00 PM 47.4°F8.6°C 44.6°F7.0°C 90% 2.3 mph SSW3.7 kmh SSW 4.6 mph7.4 kmh 29.41 in995.9 mb - 0.00 in0.0 mm 0.35 in8.9 mm
06:55 PM 47.5°F8.6°C 44.7°F7.1°C 90% 4.6 mph SW7.4 kmh SW 5.8 mph9.3 kmh 29.41 in995.9 mb - 0.00 in0.0 mm 0.35 in8.9 mm
06:50 PM 47.5°F8.6°C 44.7°F7.1°C 90% 2.3 mph SW3.7 kmh SW 3.5 mph5.6 kmh 29.41 in995.9 mb - 0.00 in0.0 mm 0.35 in8.9 mm
06:45 PM 47.5°F8.6°C 44.7°F7.1°C 90% 3.5 mph WSW5.6 kmh WSW 3.5 mph5.6 kmh 29.41 in995.9 mb - 0.00 in0.0 mm 0.35 in8.9 mm
06:40 PM 47.5°F8.6°C 44.7°F7.1°C 90% 3.5 mph WSW5.6 kmh WSW 5.8 mph9.3 kmh 29.41 in995.9 mb - 0.00 in0.0 mm 0.35 in8.9 mm
06:35 PM 47.5°F8.6°C 44.7°F7.1°C 90% 4.6 mph SW7.4 kmh SW 8.1 mph13.0 kmh 29.42 in996.3 mb - 0.00 in0.0 mm 0.35 in8.9 mm
06:30 PM 47.6°F8.7°C 44.8°F7.1°C 90% 5.8 mph SW9.3 kmh SW 9.2 mph14.8 kmh 29.42 in996.3 mb - 0.00 in0.0 mm 0.35 in8.9 mm
06:25 PM 47.6°F8.7°C 44.8°F7.1°C 90% 4.6 mph SW7.4 kmh SW 6.9 mph11.1 kmh 29.43 in996.6 mb - 0.00 in0.0 mm 0.35 in8.9 mm
06:20 PM 47.6°F8.7°C 44.8°F7.1°C 90% 3.5 mph SW5.6 kmh SW 3.5 mph5.6 kmh 29.43 in996.6 mb - 0.00 in0.0 mm 0.35 in8.9 mm
06:15 PM 47.6°F8.7°C 44.8°F7.1°C 90% 2.3 mph SW3.7 kmh SW 3.5 mph5.6 kmh 29.43 in996.6 mb - 0.00 in0.0 mm 0.35 in8.9 mm
06:10 PM 47.6°F8.7°C 44.8°F7.1°C 90% 3.5 mph SW5.6 kmh SW 5.8 mph9.3 kmh 29.43 in996.6 mb - 0.00 in0.0 mm 0.35 in8.9 mm
06:05 PM 47.6°F8.7°C 44.8°F7.1°C 90% 2.3 mph SW3.7 kmh SW 3.5 mph5.6 kmh 29.43 in996.6 mb - 0.00 in0.0 mm 0.35 in8.9 mm
06:00 PM 47.6°F8.7°C 44.8°F7.1°C 90% 4.6 mph SSW7.4 kmh SSW 6.9 mph11.1 kmh 29.43 in996.6 mb - 0.00 in0.0 mm 0.35 in8.9 mm
05:55 PM 47.6°F8.7°C 44.8°F7.1°C 90% 3.5 mph SW5.6 kmh SW 3.5 mph5.6 kmh 29.43 in996.6 mb - 0.00 in0.0 mm 0.35 in8.9 mm
05:50 PM 47.6°F8.7°C 44.8°F7.1°C 90% 4.6 mph SW7.4 kmh SW 4.6 mph7.4 kmh 29.43 in996.6 mb - 0.00 in0.0 mm 0.35 in8.9 mm
05:45 PM 47.6°F8.7°C 44.8°F7.1°C 90% 3.5 mph SW5.6 kmh SW 4.6 mph7.4 kmh 29.43 in996.6 mb - 0.00 in0.0 mm 0.35 in8.9 mm
05:40 PM 47.5°F8.6°C 44.7°F7.1°C 90% 6.9 mph SW11.1 kmh SW 9.2 mph14.8 kmh 29.42 in996.3 mb - 0.00 in0.0 mm 0.35 in8.9 mm
05:35 PM 47.5°F8.6°C 44.7°F7.1°C 90% 4.6 mph SW7.4 kmh SW 5.8 mph9.3 kmh 29.42 in996.3 mb - 0.00 in0.0 mm 0.35 in8.9 mm
05:30 PM 47.4°F8.6°C 44.7°F7.1°C 90% 4.6 mph SW7.4 kmh SW 4.6 mph7.4 kmh 29.42 in996.3 mb - 0.00 in0.0 mm 0.35 in8.9 mm
05:25 PM 47.4°F8.6°C 44.6°F7.0°C 90% 4.6 mph WSW7.4 kmh WSW 6.9 mph11.1 kmh 29.43 in996.6 mb - 0.00 in0.0 mm 0.35 in8.9 mm
05:20 PM 47.4°F8.6°C 44.6°F7.0°C 90% 4.6 mph SW7.4 kmh SW 6.9 mph11.1 kmh 29.43 in996.6 mb - 0.00 in0.0 mm 0.35 in8.9 mm
05:15 PM 47.4°F8.6°C 44.6°F7.0°C 90% 5.8 mph SW9.3 kmh SW 6.9 mph11.1 kmh 29.43 in996.6 mb - 0.00 in0.0 mm 0.35 in8.9 mm
05:10 PM 47.3°F8.5°C 44.2°F6.8°C 89% 4.6 mph SW7.4 kmh SW 5.8 mph9.3 kmh 29.44 in997.0 mb - 0.00 in0.0 mm 0.35 in8.9 mm
05:05 PM 47.3°F8.5°C 44.2°F6.8°C 89% 3.5 mph SW5.6 kmh SW 4.6 mph7.4 kmh 29.44 in997.0 mb - 0.00 in0.0 mm 0.35 in8.9 mm
05:00 PM 47.3°F8.5°C 44.2°F6.8°C 89% 5.8 mph WSW9.3 kmh WSW 10.4 mph16.7 kmh 29.44 in997.0 mb - 0.00 in0.0 mm 0.35 in8.9 mm
04:55 PM 47.3°F8.5°C 44.2°F6.8°C 89% 6.9 mph WSW11.1 kmh WSW 9.2 mph14.8 kmh 29.44 in997.0 mb - 0.00 in0.0 mm 0.35 in8.9 mm
04:50 PM 47.3°F8.5°C 44.2°F6.8°C 89% 2.3 mph SW3.7 kmh SW 6.9 mph11.1 kmh 29.45 in997.3 mb - 0.00 in0.0 mm 0.35 in8.9 mm
04:45 PM 47.2°F8.4°C 44.1°F6.7°C 89% 3.5 mph SW5.6 kmh SW 5.8 mph9.3 kmh 29.45 in997.3 mb - 0.00 in0.0 mm 0.35 in8.9 mm
04:40 PM 47.2°F8.4°C 44.1°F6.7°C 89% 5.8 mph SW9.3 kmh SW 8.1 mph13.0 kmh 29.44 in997.0 mb - 0.00 in0.0 mm 0.35 in8.9 mm
04:35 PM 47.2°F8.4°C 44.1°F6.7°C 89% 4.6 mph SW7.4 kmh SW 5.8 mph9.3 kmh 29.45 in997.3 mb - 0.00 in0.0 mm 0.35 in8.9 mm
04:30 PM 47.1°F8.4°C 44.0°F6.7°C 89% 3.5 mph SW5.6 kmh SW 5.8 mph9.3 kmh 29.44 in997.0 mb - 0.00 in0.0 mm 0.35 in8.9 mm
04:25 PM 47.0°F8.3°C 43.9°F6.6°C 89% 5.8 mph WSW9.3 kmh WSW 8.1 mph13.0 kmh 29.44 in997.0 mb - 0.00 in0.0 mm 0.35 in8.9 mm
04:20 PM 47.0°F8.3°C 43.9°F6.6°C 89% 6.9 mph WSW11.1 kmh WSW 9.2 mph14.8 kmh 29.45 in997.3 mb - 0.00 in0.0 mm 0.35 in8.9 mm
04:15 PM 47.0°F8.3°C 43.9°F6.6°C 89% 4.6 mph WSW7.4 kmh WSW 4.6 mph7.4 kmh 29.45 in997.3 mb - 0.00 in0.0 mm 0.35 in8.9 mm
04:10 PM 47.0°F8.3°C 43.9°F6.6°C 89% 4.6 mph WSW7.4 kmh WSW 5.8 mph9.3 kmh 29.45 in997.3 mb - 0.00 in0.0 mm 0.35 in8.9 mm
04:05 PM 46.9°F8.3°C 43.8°F6.6°C 89% 4.6 mph WSW7.4 kmh WSW 5.8 mph9.3 kmh 29.45 in997.3 mb - 0.00 in0.0 mm 0.35 in8.9 mm
04:00 PM 46.9°F8.3°C 43.8°F6.6°C 89% 4.6 mph WSW7.4 kmh WSW 5.8 mph9.3 kmh 29.46 in997.6 mb - 0.00 in0.0 mm 0.35 in8.9 mm
03:55 PM 46.8°F8.2°C 43.8°F6.6°C 89% 4.6 mph WSW7.4 kmh WSW 6.9 mph11.1 kmh 29.46 in997.6 mb - 0.00 in0.0 mm 0.35 in8.9 mm
03:50 PM 46.8°F8.2°C 43.7°F6.5°C 89% 4.6 mph WSW7.4 kmh WSW 8.1 mph13.0 kmh 29.46 in997.6 mb - 0.00 in0.0 mm 0.35 in8.9 mm
03:45 PM 46.8°F8.2°C 43.7°F6.5°C 89% 4.6 mph WSW7.4 kmh WSW 4.6 mph7.4 kmh 29.46 in997.6 mb - 0.00 in0.0 mm 0.35 in8.9 mm
03:40 PM 46.7°F8.2°C 43.6°F6.4°C 89% 5.8 mph SW9.3 kmh SW 9.2 mph14.8 kmh 29.46 in997.6 mb - 0.00 in0.0 mm 0.35 in8.9 mm
03:35 PM 46.7°F8.2°C 43.6°F6.4°C 89% 4.6 mph WSW7.4 kmh WSW 6.9 mph11.1 kmh 29.46 in997.6 mb - 0.00 in0.0 mm 0.35 in8.9 mm
03:30 PM 46.7°F8.2°C 43.6°F6.4°C 89% 6.9 mph SW11.1 kmh SW 9.2 mph14.8 kmh 29.47 in998.0 mb - 0.00 in0.0 mm 0.35 in8.9 mm
03:25 PM 46.7°F8.2°C 43.6°F6.4°C 89% 3.5 mph WSW5.6 kmh WSW 4.6 mph7.4 kmh 29.47 in998.0 mb - 0.00 in0.0 mm 0.35 in8.9 mm
03:20 PM 46.7°F8.2°C 43.6°F6.4°C 89% 4.6 mph WSW7.4 kmh WSW 6.9 mph11.1 kmh 29.47 in998.0 mb - 0.00 in0.0 mm 0.35 in8.9 mm
03:15 PM 46.6°F8.1°C 43.5°F6.4°C 89% 3.5 mph WSW5.6 kmh WSW 4.6 mph7.4 kmh 29.48 in998.3 mb - 0.00 in0.0 mm 0.35 in8.9 mm
03:10 PM 46.6°F8.1°C 43.5°F6.4°C 89% 3.5 mph WSW5.6 kmh WSW 3.5 mph5.6 kmh 29.48 in998.3 mb - 0.00 in0.0 mm 0.35 in8.9 mm
03:05 PM 46.6°F8.1°C 43.5°F6.4°C 89% 4.6 mph WSW7.4 kmh WSW 5.8 mph9.3 kmh 29.48 in998.3 mb - 0.00 in0.0 mm 0.35 in8.9 mm
03:00 PM 46.7°F8.2°C 43.6°F6.4°C 89% 5.8 mph WSW9.3 kmh WSW 9.2 mph14.8 kmh 29.49 in998.6 mb - 0.00 in0.0 mm 0.35 in8.9 mm
02:55 PM 46.6°F8.1°C 43.5°F6.4°C 89% 4.6 mph WSW7.4 kmh WSW 5.8 mph9.3 kmh 29.49 in998.6 mb - 0.00 in0.0 mm 0.35 in8.9 mm
02:50 PM 46.5°F8.1°C 43.4°F6.3°C 89% 6.9 mph WSW11.1 kmh WSW 9.2 mph14.8 kmh 29.49 in998.6 mb - 0.00 in0.0 mm 0.35 in8.9 mm
02:45 PM 46.5°F8.1°C 43.4°F6.3°C 89% 5.8 mph WSW9.3 kmh WSW 10.4 mph16.7 kmh 29.50 in999.0 mb - 0.00 in0.0 mm 0.35 in8.9 mm
02:40 PM 46.4°F8.0°C 43.3°F6.3°C 89% 5.8 mph WSW9.3 kmh WSW 6.9 mph11.1 kmh 29.50 in999.0 mb - 0.00 in0.0 mm 0.35 in8.9 mm
02:35 PM 46.4°F8.0°C 43.3°F6.3°C 89% 5.8 mph SW9.3 kmh SW 5.8 mph9.3 kmh 29.50 in999.0 mb - 0.00 in0.0 mm 0.35 in8.9 mm
02:30 PM 46.3°F7.9°C 42.9°F6.1°C 88% 6.9 mph WSW11.1 kmh WSW 11.5 mph18.5 kmh 29.50 in999.0 mb - 0.00 in0.0 mm 0.35 in8.9 mm
02:25 PM 46.3°F7.9°C 43.3°F6.3°C 89% 6.9 mph WSW11.1 kmh WSW 8.1 mph13.0 kmh 29.50 in999.0 mb - 0.00 in0.0 mm 0.35 in8.9 mm
02:20 PM 46.4°F8.0°C 43.3°F6.3°C 89% 6.9 mph SW11.1 kmh SW 10.4 mph16.7 kmh 29.51 in999.3 mb - 0.00 in0.0 mm 0.35 in8.9 mm
02:15 PM 46.4°F8.0°C 43.0°F6.1°C 88% 6.9 mph SW11.1 kmh SW 9.2 mph14.8 kmh 29.51 in999.3 mb - 0.00 in0.0 mm 0.35 in8.9 mm
02:10 PM 46.5°F8.1°C 43.1°F6.2°C 88% 5.8 mph WSW9.3 kmh WSW 8.1 mph13.0 kmh 29.51 in999.3 mb - 0.00 in0.0 mm 0.35 in8.9 mm
02:05 PM 46.4°F8.0°C 43.0°F6.1°C 88% 5.8 mph WSW9.3 kmh WSW 6.9 mph11.1 kmh 29.51 in999.3 mb - 0.00 in0.0 mm 0.35 in8.9 mm
02:00 PM 46.4°F8.0°C 43.0°F6.1°C 88% 5.8 mph SW9.3 kmh SW 8.1 mph13.0 kmh 29.52 in999.7 mb - 0.00 in0.0 mm 0.35 in8.9 mm
01:55 PM 46.3°F7.9°C 42.9°F6.1°C 88% 2.3 mph WSW3.7 kmh WSW 8.1 mph13.0 kmh 29.51 in999.3 mb - 0.00 in0.0 mm 0.35 in8.9 mm
01:50 PM 46.3°F7.9°C 42.9°F6.1°C 88% 5.8 mph WSW9.3 kmh WSW 8.1 mph13.0 kmh 29.52 in999.7 mb - 0.00 in0.0 mm 0.35 in8.9 mm
01:45 PM 46.3°F7.9°C 42.9°F6.1°C 88% 4.6 mph WSW7.4 kmh WSW 6.9 mph11.1 kmh 29.52 in999.7 mb - 0.00 in0.0 mm 0.35 in8.9 mm
01:40 PM 46.3°F7.9°C 42.9°F6.1°C 88% 4.6 mph WSW7.4 kmh WSW 6.9 mph11.1 kmh 29.52 in999.7 mb - 0.00 in0.0 mm 0.35 in8.9 mm
01:35 PM 46.2°F7.9°C 42.8°F6.0°C 88% 2.3 mph WSW3.7 kmh WSW 3.5 mph5.6 kmh 29.52 in999.7 mb - 0.00 in0.0 mm 0.35 in8.9 mm
01:30 PM 46.2°F7.9°C 42.8°F6.0°C 88% 4.6 mph WSW7.4 kmh WSW 6.9 mph11.1 kmh 29.52 in999.7 mb - 0.00 in0.0 mm 0.35 in8.9 mm
01:25 PM 46.2°F7.9°C 42.8°F6.0°C 88% 4.6 mph WSW7.4 kmh WSW 6.9 mph11.1 kmh 29.53 in1000.0 mb - 0.00 in0.0 mm 0.35 in8.9 mm
01:20 PM 46.2°F7.9°C 42.5°F5.8°C 87% 3.5 mph WSW5.6 kmh WSW 4.6 mph7.4 kmh 29.53 in1000.0 mb - 0.00 in0.0 mm 0.35 in8.9 mm
01:15 PM 46.3°F7.9°C 42.6°F5.9°C 87% 5.8 mph W9.3 kmh W 6.9 mph11.1 kmh 29.53 in1000.0 mb - 0.00 in0.0 mm 0.35 in8.9 mm
01:10 PM 46.2°F7.9°C 42.5°F5.8°C 87% 4.6 mph W7.4 kmh W 5.8 mph9.3 kmh 29.53 in1000.0 mb - 0.00 in0.0 mm 0.35 in8.9 mm
01:05 PM 46.2°F7.9°C 42.5°F5.8°C 87% 5.8 mph SW9.3 kmh SW 11.5 mph18.5 kmh 29.54 in1000.3 mb - 0.00 in0.0 mm 0.35 in8.9 mm
01:00 PM 46.2°F7.9°C 42.5°F5.8°C 87% 4.6 mph WSW7.4 kmh WSW 4.6 mph7.4 kmh 29.54 in1000.3 mb - 0.00 in0.0 mm 0.35 in8.9 mm
12:55 PM 46.1°F7.8°C 42.4°F5.8°C 87% 3.5 mph WSW5.6 kmh WSW 10.4 mph16.7 kmh 29.54 in1000.3 mb - 0.00 in0.0 mm 0.35 in8.9 mm
12:50 PM 46.1°F7.8°C 42.4°F5.8°C 87% 5.8 mph WSW9.3 kmh WSW 10.4 mph16.7 kmh 29.54 in1000.3 mb - 0.00 in0.0 mm 0.35 in8.9 mm
12:45 PM 46.1°F7.8°C 42.4°F5.8°C 87% 3.5 mph WSW5.6 kmh WSW 8.1 mph13.0 kmh 29.55 in1000.7 mb - 0.00 in0.0 mm 0.35 in8.9 mm
12:40 PM 46.0°F7.8°C 42.3°F5.7°C 87% 4.6 mph SW7.4 kmh SW 4.6 mph7.4 kmh 29.55 in1000.7 mb - 0.00 in0.0 mm 0.35 in8.9 mm
12:35 PM 45.9°F7.7°C 42.2°F5.7°C 87% 5.8 mph WSW9.3 kmh WSW 9.2 mph14.8 kmh 29.55 in1000.7 mb - 0.00 in0.0 mm 0.35 in8.9 mm
12:30 PM 46.0°F7.8°C 42.0°F5.6°C 86% 5.8 mph WSW9.3 kmh WSW 9.2 mph14.8 kmh 29.55 in1000.7 mb - 0.00 in0.0 mm 0.35 in8.9 mm
12:25 PM 46.1°F7.8°C 42.1°F5.6°C 86% 4.6 mph WSW7.4 kmh WSW 6.9 mph11.1 kmh 29.56 in1001.0 mb - 0.00 in0.0 mm 0.35 in8.9 mm
12:20 PM 46.1°F7.8°C 42.1°F5.6°C 86% 6.9 mph WSW11.1 kmh WSW 10.4 mph16.7 kmh 29.56 in1001.0 mb - 0.00 in0.0 mm 0.35 in8.9 mm
12:15 PM 46.1°F7.8°C 42.1°F5.6°C 86% 3.5 mph W5.6 kmh W 6.9 mph11.1 kmh 29.57 in1001.4 mb - 0.00 in0.0 mm 0.35 in8.9 mm
12:10 PM 46.1°F7.8°C 42.1°F5.6°C 86% 2.3 mph W3.7 kmh W 3.5 mph5.6 kmh 29.57 in1001.4 mb - 0.00 in0.0 mm 0.35 in8.9 mm
12:05 PM 46.1°F7.8°C 42.1°F5.6°C 86% 2.3 mph W3.7 kmh W 5.8 mph9.3 kmh 29.58 in1001.7 mb - 0.00 in0.0 mm 0.35 in8.9 mm
12:00 PM 46.0°F7.8°C 42.0°F5.6°C 86% 4.6 mph WNW7.4 kmh WNW 6.9 mph11.1 kmh 29.59 in1002.0 mb - 0.00 in0.0 mm 0.35 in8.9 mm
11:55 AM 46.0°F7.8°C 42.0°F5.6°C 86% 2.3 mph W3.7 kmh W 6.9 mph11.1 kmh 29.59 in1002.0 mb - 0.00 in0.0 mm 0.35 in8.9 mm
11:50 AM 46.0°F7.8°C 42.0°F5.6°C 86% 5.8 mph WSW9.3 kmh WSW 8.1 mph13.0 kmh 29.59 in1002.0 mb - 0.00 in0.0 mm 0.35 in8.9 mm
11:45 AM 46.0°F7.8°C 42.0°F5.6°C 86% 3.5 mph W5.6 kmh W 5.8 mph9.3 kmh 29.59 in1002.0 mb - 0.00 in0.0 mm 0.35 in8.9 mm
11:40 AM 45.9°F7.7°C 41.9°F5.5°C 86% 4.6 mph WSW7.4 kmh WSW 5.8 mph9.3 kmh 29.59 in1002.0 mb - 0.00 in0.0 mm 0.35 in8.9 mm
11:35 AM 45.8°F7.7°C 41.9°F5.5°C 86% 5.8 mph W9.3 kmh W 6.9 mph11.1 kmh 29.59 in1002.0 mb - 0.00 in0.0 mm 0.35 in8.9 mm
11:30 AM 45.7°F7.6°C 41.8°F5.4°C 86% 2.3 mph W3.7 kmh W 4.6 mph7.4 kmh 29.59 in1002.0 mb - 0.00 in0.0 mm 0.35 in8.9 mm
11:25 AM 45.6°F7.6°C 41.7°F5.4°C 86% 4.6 mph W7.4 kmh W 5.8 mph9.3 kmh 29.59 in1002.0 mb - 0.00 in0.0 mm 0.35 in8.9 mm
11:20 AM 45.5°F7.5°C 41.6°F5.3°C 86% 4.6 mph W7.4 kmh W 6.9 mph11.1 kmh 29.59 in1002.0 mb - 0.00 in0.0 mm 0.35 in8.9 mm
11:15 AM 45.5°F7.5°C 41.6°F5.3°C 86% 2.3 mph WNW3.7 kmh WNW 4.6 mph7.4 kmh 29.60 in1002.4 mb - 0.00 in0.0 mm 0.35 in8.9 mm
11:10 AM 45.4°F7.4°C 41.5°F5.3°C 86% 4.6 mph W7.4 kmh W 5.8 mph9.3 kmh 29.60 in1002.4 mb - 0.00 in0.0 mm 0.35 in8.9 mm
11:05 AM 45.4°F7.4°C 41.5°F5.3°C 86% 4.6 mph W7.4 kmh W 5.8 mph9.3 kmh 29.60 in1002.4 mb - 0.00 in0.0 mm 0.35 in8.9 mm
11:00 AM 45.5°F7.5°C 41.6°F5.3°C 86% 6.9 mph WSW11.1 kmh WSW 9.2 mph14.8 kmh 29.61 in1002.7 mb - 0.00 in0.0 mm 0.35 in8.9 mm
10:55 AM 45.5°F7.5°C 41.6°F5.3°C 86% 1.2 mph WNW1.9 kmh WNW 3.5 mph5.6 kmh 29.61 in1002.7 mb - 0.00 in0.0 mm 0.35 in8.9 mm
10:50 AM 45.4°F7.4°C 41.5°F5.3°C 86% 4.6 mph W7.4 kmh W 5.8 mph9.3 kmh 29.61 in1002.7 mb - 0.00 in0.0 mm 0.35 in8.9 mm
10:45 AM 45.3°F7.4°C 41.4°F5.2°C 86% 2.3 mph W3.7 kmh W 4.6 mph7.4 kmh 29.61 in1002.7 mb - 0.00 in0.0 mm 0.35 in8.9 mm
10:40 AM 45.2°F7.3°C 41.3°F5.2°C 86% 2.3 mph W3.7 kmh W 8.1 mph13.0 kmh 29.61 in1002.7 mb - 0.00 in0.0 mm 0.35 in8.9 mm
10:35 AM 45.2°F7.3°C 41.2°F5.1°C 86% 2.3 mph WSW3.7 kmh WSW 5.8 mph9.3 kmh 29.60 in1002.4 mb - 0.00 in0.0 mm 0.35 in8.9 mm
10:30 AM 45.1°F7.3°C 41.2°F5.1°C 86% 4.6 mph W7.4 kmh W 9.2 mph14.8 kmh 29.61 in1002.7 mb - 0.00 in0.0 mm 0.35 in8.9 mm
10:25 AM 45.0°F7.2°C 41.4°F5.2°C 87% 6.9 mph WSW11.1 kmh WSW 9.2 mph14.8 kmh 29.61 in1002.7 mb - 0.01 in0.3 mm 0.35 in8.9 mm
10:20 AM 45.0°F7.2°C 41.4°F5.2°C 87% 3.5 mph W5.6 kmh W 9.2 mph14.8 kmh 29.61 in1002.7 mb - 0.00 in0.0 mm 0.34 in8.6 mm
10:15 AM 45.0°F7.2°C 41.4°F5.2°C 87% 3.5 mph W5.6 kmh W 4.6 mph7.4 kmh 29.62 in1003.0 mb - 0.00 in0.0 mm 0.34 in8.6 mm
10:10 AM 45.0°F7.2°C 41.3°F5.2°C 87% 3.5 mph W5.6 kmh W 8.1 mph13.0 kmh 29.62 in1003.0 mb - 0.00 in0.0 mm 0.34 in8.6 mm
10:05 AM 45.0°F7.2°C 41.4°F5.2°C 87% 4.6 mph WSW7.4 kmh WSW 8.1 mph13.0 kmh 29.62 in1003.0 mb - 0.00 in0.0 mm 0.34 in8.6 mm
10:00 AM 45.0°F7.2°C 41.4°F5.2°C 87% 1.2 mph WSW1.9 kmh WSW 5.8 mph9.3 kmh 29.63 in1003.4 mb - 0.00 in0.0 mm 0.34 in8.6 mm
09:55 AM 45.0°F7.2°C 41.4°F5.2°C 87% 4.6 mph WSW7.4 kmh WSW 5.8 mph9.3 kmh 29.63 in1003.4 mb - 0.00 in0.0 mm 0.34 in8.6 mm
09:50 AM 45.0°F7.2°C 41.4°F5.2°C 87% 4.6 mph WSW7.4 kmh WSW 4.6 mph7.4 kmh 29.64 in1003.7 mb - 0.00 in0.0 mm 0.34 in8.6 mm
09:45 AM 45.1°F7.3°C 41.5°F5.3°C 87% 4.6 mph WSW7.4 kmh WSW 5.8 mph9.3 kmh 29.64 in1003.7 mb - 0.00 in0.0 mm 0.34 in8.6 mm
09:40 AM 45.1°F7.3°C 41.5°F5.3°C 87% 2.3 mph WSW3.7 kmh WSW 4.6 mph7.4 kmh 29.64 in1003.7 mb - 0.00 in0.0 mm 0.34 in8.6 mm
09:35 AM 45.1°F7.3°C 41.5°F5.3°C 87% 3.5 mph WSW5.6 kmh WSW 5.8 mph9.3 kmh 29.64 in1003.7 mb - 0.01 in0.3 mm 0.34 in8.6 mm
09:30 AM 45.2°F7.3°C 41.5°F5.3°C 87% 4.6 mph WSW7.4 kmh WSW 6.9 mph11.1 kmh 29.64 in1003.7 mb - 0.00 in0.0 mm 0.33 in8.4 mm
09:25 AM 45.1°F7.3°C 41.5°F5.3°C 87% 4.6 mph WSW7.4 kmh WSW 3.5 mph5.6 kmh 29.64 in1003.7 mb - 0.00 in0.0 mm 0.33 in8.4 mm
09:20 AM 45.2°F7.3°C 41.6°F5.3°C 87% 3.5 mph WSW5.6 kmh WSW 5.8 mph9.3 kmh 29.64 in1003.7 mb - 0.00 in0.0 mm 0.33 in8.4 mm
09:15 AM 45.2°F7.3°C 41.5°F5.3°C 87% 4.6 mph WSW7.4 kmh WSW 6.9 mph11.1 kmh 29.64 in1003.7 mb - 0.00 in0.0 mm 0.33 in8.4 mm
09:10 AM 45.1°F7.3°C 41.5°F5.3°C 87% 4.6 mph WSW7.4 kmh WSW 6.9 mph11.1 kmh 29.64 in1003.7 mb - 0.00 in0.0 mm 0.33 in8.4 mm
09:05 AM 45.1°F7.3°C 41.5°F5.3°C 87% 2.3 mph WSW3.7 kmh WSW 3.5 mph5.6 kmh 29.64 in1003.7 mb - 0.00 in0.0 mm 0.33 in8.4 mm
09:00 AM 45.0°F7.2°C 41.4°F5.2°C 87% 2.3 mph WSW3.7 kmh WSW 4.6 mph7.4 kmh 29.64 in1003.7 mb - 0.00 in0.0 mm 0.33 in8.4 mm
08:55 AM 45.0°F7.2°C 41.4°F5.2°C 87% 3.5 mph WSW5.6 kmh WSW 4.6 mph7.4 kmh 29.63 in1003.4 mb - 0.00 in0.0 mm 0.33 in8.4 mm
08:50 AM 45.0°F7.2°C 41.4°F5.2°C 87% 2.3 mph WSW3.7 kmh WSW 4.6 mph7.4 kmh 29.63 in1003.4 mb - 0.00 in0.0 mm 0.33 in8.4 mm
08:45 AM 45.0°F7.2°C 41.4°F5.2°C 87% 3.5 mph SW5.6 kmh SW 5.8 mph9.3 kmh 29.63 in1003.4 mb - 0.00 in0.0 mm 0.33 in8.4 mm
08:40 AM 45.0°F7.2°C 41.4°F5.2°C 87% 3.5 mph WSW5.6 kmh WSW 4.6 mph7.4 kmh 29.63 in1003.4 mb - 0.01 in0.3 mm 0.33 in8.4 mm
08:35 AM 45.0°F7.2°C 41.4°F5.2°C 87% 1.2 mph WSW1.9 kmh WSW 3.5 mph5.6 kmh 29.63 in1003.4 mb - 0.00 in0.0 mm 0.32 in8.1 mm
08:30 AM 44.9°F7.2°C 41.3°F5.2°C 87% 2.3 mph WSW3.7 kmh WSW 4.6 mph7.4 kmh 29.63 in1003.4 mb - 0.00 in0.0 mm 0.32 in8.1 mm
08:25 AM 45.0°F7.2°C 41.3°F5.2°C 87% 3.5 mph WSW5.6 kmh WSW 4.6 mph7.4 kmh 29.63 in1003.4 mb - 0.00 in0.0 mm 0.32 in8.1 mm
08:20 AM 45.0°F7.2°C 41.4°F5.2°C 87% 3.5 mph W5.6 kmh W 4.6 mph7.4 kmh 29.63 in1003.4 mb - 0.00 in0.0 mm 0.32 in8.1 mm
08:15 AM 45.0°F7.2°C 41.4°F5.2°C 87% 2.3 mph WSW3.7 kmh WSW 5.8 mph9.3 kmh 29.63 in1003.4 mb - 0.00 in0.0 mm 0.32 in8.1 mm
08:10 AM 45.0°F7.2°C 41.4°F5.2°C 87% 2.3 mph WSW3.7 kmh WSW 4.6 mph7.4 kmh 29.63 in1003.4 mb - 0.00 in0.0 mm 0.32 in8.1 mm
08:05 AM 45.0°F7.2°C 41.4°F5.2°C 87% 1.2 mph WSW1.9 kmh WSW 3.5 mph5.6 kmh 29.63 in1003.4 mb - 0.00 in0.0 mm 0.32 in8.1 mm
08:00 AM 45.0°F7.2°C 41.4°F5.2°C 87% 3.5 mph WSW5.6 kmh WSW 5.8 mph9.3 kmh 29.63 in1003.4 mb - 0.01 in0.3 mm 0.32 in8.1 mm
07:55 AM 45.1°F7.3°C 41.5°F5.3°C 87% 3.5 mph WSW5.6 kmh WSW 3.5 mph5.6 kmh 29.63 in1003.4 mb - 0.00 in0.0 mm 0.31 in7.9 mm
07:50 AM 45.1°F7.3°C 41.5°F5.3°C 87% 2.3 mph WSW3.7 kmh WSW 3.5 mph5.6 kmh 29.64 in1003.7 mb - 0.00 in0.0 mm 0.31 in7.9 mm
07:45 AM 45.1°F7.3°C 41.5°F5.3°C 87% 2.3 mph W3.7 kmh W 3.5 mph5.6 kmh 29.64 in1003.7 mb - 0.01 in0.3 mm 0.31 in7.9 mm
07:40 AM 45.1°F7.3°C 41.5°F5.3°C 87% 2.3 mph WSW3.7 kmh WSW 3.5 mph5.6 kmh 29.64 in1003.7 mb - 0.00 in0.0 mm 0.30 in7.6 mm
07:35 AM 45.1°F7.3°C 41.5°F5.3°C 87% 2.3 mph WSW3.7 kmh WSW 3.5 mph5.6 kmh 29.64 in1003.7 mb - 0.00 in0.0 mm 0.30 in7.6 mm
07:30 AM 45.1°F7.3°C 41.5°F5.3°C 87% 3.5 mph W5.6 kmh W 4.6 mph7.4 kmh 29.64 in1003.7 mb - 0.01 in0.3 mm 0.30 in7.6 mm
07:25 AM 45.1°F7.3°C 41.5°F5.3°C 87% 3.5 mph W5.6 kmh W 3.5 mph5.6 kmh 29.64 in1003.7 mb - 0.00 in0.0 mm 0.29 in7.4 mm
07:20 AM 45.1°F7.3°C 41.5°F5.3°C 87% 3.5 mph W5.6 kmh W 3.5 mph5.6 kmh 29.64 in1003.7 mb - 0.00 in0.0 mm 0.29 in7.4 mm
07:15 AM 45.2°F7.3°C 41.6°F5.3°C 87% 3.5 mph WSW5.6 kmh WSW 3.5 mph5.6 kmh 29.64 in1003.7 mb - 0.01 in0.3 mm 0.29 in7.4 mm
07:10 AM 45.2°F7.3°C 41.6°F5.3°C 87% 2.3 mph W3.7 kmh W 3.5 mph5.6 kmh 29.64 in1003.7 mb - 0.00 in0.0 mm 0.28 in7.1 mm
07:05 AM 45.2°F7.3°C 41.6°F5.3°C 87% 1.2 mph WNW1.9 kmh WNW 2.3 mph3.7 kmh 29.64 in1003.7 mb - 0.00 in0.0 mm 0.28 in7.1 mm
07:00 AM 45.3°F7.4°C 41.7°F5.4°C 87% Calm Calm 2.3 mph3.7 kmh 29.64 in1003.7 mb - 0.00 in0.0 mm 0.28 in7.1 mm
06:55 AM 45.3°F7.4°C 41.7°F5.4°C 87% 1.2 mph W1.9 kmh W 2.3 mph3.7 kmh 29.64 in1003.7 mb - 0.00 in0.0 mm 0.28 in7.1 mm
06:50 AM 45.3°F7.4°C 41.7°F5.4°C 87% 1.2 mph W1.9 kmh W 2.3 mph3.7 kmh 29.65 in1004.1 mb - 0.00 in0.0 mm 0.28 in7.1 mm
06:45 AM 45.3°F7.4°C 41.7°F5.4°C 87% 1.2 mph WNW1.9 kmh WNW 2.3 mph3.7 kmh 29.65 in1004.1 mb - 0.00 in0.0 mm 0.28 in7.1 mm
06:40 AM 45.2°F7.3°C 41.6°F5.3°C 87% 1.2 mph W1.9 kmh W 3.5 mph5.6 kmh 29.65 in1004.1 mb - 0.00 in0.0 mm 0.28 in7.1 mm
06:35 AM 45.3°F7.4°C 42.0°F5.6°C 88% 1.2 mph W1.9 kmh W 2.3 mph3.7 kmh 29.65 in1004.1 mb - 0.00 in0.0 mm 0.28 in7.1 mm
06:30 AM 45.3°F7.4°C 42.0°F5.6°C 88% 3.5 mph WSW5.6 kmh WSW 4.6 mph7.4 kmh 29.66 in1004.4 mb - 0.00 in0.0 mm 0.28 in7.1 mm
06:25 AM 45.3°F7.4°C 42.0°F5.6°C 88% 2.3 mph WSW3.7 kmh WSW 3.5 mph5.6 kmh 29.66 in1004.4 mb - 0.00 in0.0 mm 0.28 in7.1 mm
06:20 AM 45.3°F7.4°C 42.0°F5.6°C 88% 2.3 mph WSW3.7 kmh WSW 3.5 mph5.6 kmh 29.66 in1004.4 mb - 0.01 in0.3 mm 0.28 in7.1 mm
06:15 AM 45.4°F7.4°C 42.1°F5.6°C 88% 3.5 mph W5.6 kmh W 4.6 mph7.4 kmh 29.66 in1004.4 mb - 0.00 in0.0 mm 0.27 in6.9 mm
06:10 AM 45.4°F7.4°C 42.1°F5.6°C 88% 2.3 mph WSW3.7 kmh WSW 4.6 mph7.4 kmh 29.66 in1004.4 mb - 0.00 in0.0 mm 0.27 in6.9 mm
06:05 AM 45.4°F7.4°C 42.1°F5.6°C 88% 3.5 mph W5.6 kmh W 5.8 mph9.3 kmh 29.66 in1004.4 mb - 0.00 in0.0 mm 0.27 in6.9 mm
06:00 AM 45.6°F7.6°C 41.9°F5.5°C 87% 4.6 mph WSW7.4 kmh WSW 5.8 mph9.3 kmh 29.66 in1004.4 mb - 0.00 in0.0 mm 0.27 in6.9 mm
05:55 AM 45.7°F7.6°C 42.1°F5.6°C 87% 4.6 mph WSW7.4 kmh WSW 4.6 mph7.4 kmh 29.66 in1004.4 mb - 0.01 in0.3 mm 0.27 in6.9 mm
05:50 AM 45.8°F7.7°C 42.2°F5.7°C 87% 2.3 mph WSW3.7 kmh WSW 4.6 mph7.4 kmh 29.66 in1004.4 mb - 0.00 in0.0 mm 0.26 in6.6 mm
05:45 AM 45.8°F7.7°C 42.2°F5.7°C 87% 3.5 mph W5.6 kmh W 3.5 mph5.6 kmh 29.66 in1004.4 mb - 0.00 in0.0 mm 0.26 in6.6 mm
05:40 AM 45.8°F7.7°C 42.2°F5.7°C 87% 1.2 mph W1.9 kmh W 3.5 mph5.6 kmh 29.67 in1004.7 mb - 0.00 in0.0 mm 0.26 in6.6 mm
05:35 AM 45.8°F7.7°C 42.2°F5.7°C 87% 2.3 mph W3.7 kmh W 3.5 mph5.6 kmh 29.67 in1004.7 mb - 0.00 in0.0 mm 0.26 in6.6 mm
05:30 AM 45.8°F7.7°C 42.2°F5.7°C 87% 1.2 mph WNW1.9 kmh WNW 3.5 mph5.6 kmh 29.67 in1004.7 mb - 0.01 in0.3 mm 0.26 in6.6 mm
05:25 AM 45.8°F7.7°C 42.2°F5.7°C 87% 1.2 mph WNW1.9 kmh WNW 2.3 mph3.7 kmh 29.67 in1004.7 mb - 0.00 in0.0 mm 0.25 in6.4 mm
05:20 AM 45.7°F7.6°C 42.3°F5.7°C 88% 1.2 mph WNW1.9 kmh WNW 2.3 mph3.7 kmh 29.67 in1004.7 mb - 0.00 in0.0 mm 0.25 in6.4 mm
05:15 AM 45.7°F7.6°C 42.3°F5.7°C 88% Calm Calm 2.3 mph3.7 kmh 29.67 in1004.7 mb - 0.00 in0.0 mm 0.25 in6.4 mm
05:10 AM 45.7°F7.6°C 42.3°F5.7°C 88% 1.2 mph WNW1.9 kmh WNW 3.5 mph5.6 kmh 29.67 in1004.7 mb - 0.00 in0.0 mm 0.25 in6.4 mm
05:05 AM 45.7°F7.6°C 42.3°F5.7°C 88% Calm Calm 2.3 mph3.7 kmh 29.67 in1004.7 mb - 0.00 in0.0 mm 0.25 in6.4 mm
05:00 AM 45.7°F7.6°C 42.3°F5.7°C 88% Calm Calm 1.2 mph1.9 kmh 29.66 in1004.4 mb - 0.00 in0.0 mm 0.25 in6.4 mm
04:55 AM 45.8°F7.7°C 42.4°F5.8°C 88% 1.2 mph NW1.9 kmh NW 3.5 mph5.6 kmh 29.66 in1004.4 mb - 0.01 in0.3 mm 0.25 in6.4 mm
04:50 AM 45.8°F7.7°C 42.4°F5.8°C 88% 1.2 mph NW1.9 kmh NW 2.3 mph3.7 kmh 29.66 in1004.4 mb - 0.00 in0.0 mm 0.24 in6.1 mm
04:45 AM 45.8°F7.7°C 42.4°F5.8°C 88% 1.2 mph NW1.9 kmh NW 2.3 mph3.7 kmh 29.66 in1004.4 mb - 0.00 in0.0 mm 0.24 in6.1 mm
04:40 AM 45.8°F7.7°C 42.4°F5.8°C 88% 1.2 mph NW1.9 kmh NW 2.3 mph3.7 kmh 29.66 in1004.4 mb - 0.00 in0.0 mm 0.24 in6.1 mm
04:35 AM 45.8°F7.7°C 42.4°F5.8°C 88% 1.2 mph NW1.9 kmh NW 2.3 mph3.7 kmh 29.66 in1004.4 mb - 0.00 in0.0 mm 0.24 in6.1 mm
04:30 AM 45.8°F7.7°C 42.4°F5.8°C 88% 3.5 mph NW5.6 kmh NW 3.5 mph5.6 kmh 29.66 in1004.4 mb - 0.00 in0.0 mm 0.24 in6.1 mm
04:25 AM 45.8°F7.7°C 42.4°F5.8°C 88% 2.3 mph NW3.7 kmh NW 3.5 mph5.6 kmh 29.66 in1004.4 mb - 0.01 in0.3 mm 0.24 in6.1 mm
04:20 AM 45.8°F7.7°C 42.4°F5.8°C 88% 1.2 mph NW1.9 kmh NW 3.5 mph5.6 kmh 29.66 in1004.4 mb - 0.00 in0.0 mm 0.23 in5.8 mm
04:15 AM 45.8°F7.7°C 42.4°F5.8°C 88% 1.2 mph NW1.9 kmh NW 2.3 mph3.7 kmh 29.68 in1005.1 mb - 0.01 in0.3 mm 0.23 in5.8 mm
04:10 AM 45.7°F7.6°C 42.3°F5.7°C 88% 1.2 mph NW1.9 kmh NW 2.3 mph3.7 kmh 29.68 in1005.1 mb - 0.00 in0.0 mm 0.22 in5.6 mm
04:05 AM 45.7°F7.6°C 42.3°F5.7°C 88% Calm Calm 1.2 mph1.9 kmh 29.68 in1005.1 mb - 0.00 in0.0 mm 0.22 in5.6 mm
04:00 AM 45.7°F7.6°C 42.3°F5.7°C 88% Calm Calm 1.2 mph1.9 kmh 29.69 in1005.4 mb - 0.00 in0.0 mm 0.22 in5.6 mm
03:55 AM 45.7°F7.6°C 42.3°F5.7°C 88% Calm Calm 2.3 mph3.7 kmh 29.69 in1005.4 mb - 0.00 in0.0 mm 0.22 in5.6 mm
03:50 AM 45.7°F7.6°C 42.3°F5.7°C 88% 1.2 mph NW1.9 kmh NW 2.3 mph3.7 kmh 29.69 in1005.4 mb - 0.01 in0.3 mm 0.22 in5.6 mm
03:45 AM 45.6°F7.6°C 42.3°F5.7°C 88% Calm Calm 1.2 mph1.9 kmh 29.69 in1005.4 mb - 0.00 in0.0 mm 0.21 in5.3 mm
03:40 AM 45.6°F7.6°C 42.3°F5.7°C 88% 1.2 mph NW1.9 kmh NW 2.3 mph3.7 kmh 29.70 in1005.8 mb - 0.00 in0.0 mm 0.21 in5.3 mm
03:35 AM 45.6°F7.6°C 42.3°F5.7°C 88% Calm Calm 2.3 mph3.7 kmh 29.70 in1005.8 mb - 0.00 in0.0 mm 0.21 in5.3 mm
03:30 AM 45.7°F7.6°C 42.3°F5.7°C 88% 1.2 mph NW1.9 kmh NW 2.3 mph3.7 kmh 29.70 in1005.8 mb - 0.01 in0.3 mm 0.21 in5.3 mm
03:25 AM 45.6°F7.6°C 42.3°F5.7°C 88% Calm Calm 1.2 mph1.9 kmh 29.70 in1005.8 mb - 0.00 in0.0 mm 0.20 in5.1 mm
03:20 AM 45.6°F7.6°C 42.3°F5.7°C 88% 1.2 mph NW1.9 kmh NW 3.5 mph5.6 kmh 29.70 in1005.8 mb - 0.00 in0.0 mm 0.20 in5.1 mm
03:15 AM 45.6°F7.6°C 42.3°F5.7°C 88% Calm Calm 2.3 mph3.7 kmh 29.71 in1006.1 mb - 0.00 in0.0 mm 0.20 in5.1 mm
03:10 AM 45.6°F7.6°C 42.2°F5.7°C 88% 1.2 mph NW1.9 kmh NW 1.2 mph1.9 kmh 29.71 in1006.1 mb - 0.01 in0.3 mm 0.20 in5.1 mm
03:05 AM 45.5°F7.5°C 42.2°F5.7°C 88% Calm Calm -- 29.71 in1006.1 mb - 0.01 in0.3 mm 0.20 in5.1 mm
03:00 AM 45.5°F7.5°C 42.2°F5.7°C 88% Calm Calm -- 29.71 in1006.1 mb - 0.00 in0.0 mm 0.19 in4.8 mm
02:55 AM 45.5°F7.5°C 42.2°F5.7°C 88% Calm Calm -- 29.71 in1006.1 mb - 0.00 in0.0 mm 0.19 in4.8 mm
02:50 AM 45.5°F7.5°C 42.2°F5.7°C 88% 1.2 mph NW1.9 kmh NW 1.2 mph1.9 kmh 29.72 in1006.4 mb - 0.01 in0.3 mm 0.19 in4.8 mm
02:45 AM 45.5°F7.5°C 42.2°F5.7°C 88% Calm Calm -- 29.72 in1006.4 mb - 0.00 in0.0 mm 0.18 in4.6 mm
02:40 AM 45.5°F7.5°C 42.2°F5.7°C 88% Calm Calm 1.2 mph1.9 kmh 29.72 in1006.4 mb - 0.00 in0.0 mm 0.18 in4.6 mm
02:35 AM 45.5°F7.5°C 42.2°F5.7°C 88% 1.2 mph NW1.9 kmh NW 1.2 mph1.9 kmh 29.72 in1006.4 mb - 0.00 in0.0 mm 0.18 in4.6 mm
02:30 AM 45.5°F7.5°C 42.2°F5.7°C 88% 1.2 mph NW1.9 kmh NW 2.3 mph3.7 kmh 29.72 in1006.4 mb - 0.01 in0.3 mm 0.18 in4.6 mm
02:25 AM 45.5°F7.5°C 42.2°F5.7°C 88% 1.2 mph NW1.9 kmh NW 3.5 mph5.6 kmh 29.72 in1006.4 mb - 0.00 in0.0 mm 0.17 in4.3 mm
02:20 AM 45.5°F7.5°C 42.2°F5.7°C 88% 2.3 mph NW3.7 kmh NW 3.5 mph5.6 kmh 29.72 in1006.4 mb - 0.01 in0.3 mm 0.17 in4.3 mm
02:15 AM 45.6°F7.6°C 42.5°F5.8°C 89% 2.3 mph NW3.7 kmh NW 3.5 mph5.6 kmh 29.73 in1006.8 mb - 0.01 in0.3 mm 0.17 in4.3 mm
02:10 AM 45.6°F7.6°C 42.5°F5.8°C 89% 2.3 mph NW3.7 kmh NW 3.5 mph5.6 kmh 29.73 in1006.8 mb - 0.00 in0.0 mm 0.16 in4.1 mm
02:05 AM 45.6°F7.6°C 42.5°F5.8°C 89% 2.3 mph NW3.7 kmh NW 2.3 mph3.7 kmh 29.73 in1006.8 mb - 0.01 in0.3 mm 0.16 in4.1 mm
02:00 AM 45.6°F7.6°C 42.6°F5.9°C 89% 3.5 mph NNW5.6 kmh NNW 4.6 mph7.4 kmh 29.73 in1006.8 mb - 0.01 in0.3 mm 0.16 in4.1 mm
01:55 AM 45.7°F7.6°C 42.6°F5.9°C 89% 1.2 mph NW1.9 kmh NW 3.5 mph5.6 kmh 29.73 in1006.8 mb - 0.00 in0.0 mm 0.15 in3.8 mm
01:50 AM 45.7°F7.6°C 42.6°F5.9°C 89% 3.5 mph N5.6 kmh N 3.5 mph5.6 kmh 29.73 in1006.8 mb - 0.01 in0.3 mm 0.15 in3.8 mm
01:45 AM 45.8°F7.7°C 42.7°F5.9°C 89% 3.5 mph NW5.6 kmh NW 4.6 mph7.4 kmh 29.73 in1006.8 mb - 0.00 in0.0 mm 0.14 in3.6 mm
01:40 AM 45.7°F7.6°C 42.6°F5.9°C 89% Calm Calm -- 29.73 in1006.8 mb - 0.00 in0.0 mm 0.14 in3.6 mm
01:35 AM 45.7°F7.6°C 42.7°F5.9°C 89% 2.3 mph NW3.7 kmh NW 3.5 mph5.6 kmh 29.73 in1006.8 mb - 0.00 in0.0 mm 0.14 in3.6 mm
01:30 AM 45.7°F7.6°C 42.6°F5.9°C 89% 1.2 mph NW1.9 kmh NW 3.5 mph5.6 kmh 29.73 in1006.8 mb - 0.01 in0.3 mm 0.14 in3.6 mm
01:25 AM 45.8°F7.7°C 42.7°F5.9°C 89% 2.3 mph NW3.7 kmh NW 3.5 mph5.6 kmh 29.73 in1006.8 mb - 0.01 in0.3 mm 0.13 in3.3 mm
01:20 AM 45.8°F7.7°C 42.7°F5.9°C 89% 3.5 mph NW5.6 kmh NW 3.5 mph5.6 kmh 29.73 in1006.8 mb - 0.01 in0.3 mm 0.12 in3.0 mm
01:15 AM 45.8°F7.7°C 42.7°F5.9°C 89% 3.5 mph NW5.6 kmh NW 3.5 mph5.6 kmh 29.74 in1007.1 mb - 0.01 in0.3 mm 0.11 in2.8 mm
01:05 AM 45.9°F7.7°C 42.8°F6.0°C 89% 3.5 mph NW5.6 kmh NW 3.5 mph5.6 kmh 29.74 in1007.1 mb - 0.01 in0.3 mm 0.10 in2.5 mm
01:00 AM 45.9°F7.7°C 42.8°F6.0°C 89% 3.5 mph NW5.6 kmh NW 4.6 mph7.4 kmh 29.74 in1007.1 mb - 0.01 in0.3 mm 0.09 in2.3 mm
12:55 AM 45.9°F7.7°C 42.8°F6.0°C 89% 2.3 mph NW3.7 kmh NW 3.5 mph5.6 kmh 29.75 in1007.5 mb - 0.01 in0.3 mm 0.08 in2.0 mm
12:50 AM 45.9°F7.7°C 42.8°F6.0°C 89% 1.2 mph NNW1.9 kmh NNW 3.5 mph5.6 kmh 29.75 in1007.5 mb - 0.02 in0.5 mm 0.08 in2.0 mm
12:45 AM 45.9°F7.7°C 42.8°F6.0°C 89% 2.3 mph NNW3.7 kmh NNW 3.5 mph5.6 kmh 29.75 in1007.5 mb - 0.01 in0.3 mm 0.06 in1.5 mm
12:40 AM 45.9°F7.7°C 42.8°F6.0°C 89% 1.2 mph NW1.9 kmh NW 2.3 mph3.7 kmh 29.75 in1007.5 mb - 0.01 in0.3 mm 0.06 in1.5 mm
12:35 AM 45.9°F7.7°C 42.8°F6.0°C 89% 2.3 mph NW3.7 kmh NW 2.3 mph3.7 kmh 29.75 in1007.5 mb - 0.01 in0.3 mm 0.05 in1.3 mm
12:30 AM 45.9°F7.7°C 42.8°F6.0°C 89% 2.3 mph N3.7 kmh N 2.3 mph3.7 kmh 29.75 in1007.5 mb - 0.01 in0.3 mm 0.04 in1.0 mm
12:25 AM 45.9°F7.7°C 42.8°F6.0°C 89% 1.2 mph N1.9 kmh N 2.3 mph3.7 kmh 29.76 in1007.8 mb - 0.01 in0.3 mm 0.03 in0.8 mm
12:20 AM 45.9°F7.7°C 42.8°F6.0°C 89% 1.2 mph N1.9 kmh N 2.3 mph3.7 kmh 29.76 in1007.8 mb - 0.01 in0.3 mm 0.02 in0.5 mm
12:15 AM 45.9°F7.7°C 42.8°F6.0°C 89% 2.3 mph N3.7 kmh N 3.5 mph5.6 kmh 29.76 in1007.8 mb - 0.00 in0.0 mm 0.01 in0.3 mm
12:10 AM 45.8°F7.7°C 42.7°F5.9°C 89% 1.2 mph N1.9 kmh N 2.3 mph3.7 kmh 29.76 in1007.8 mb - 0.01 in0.3 mm 0.01 in0.3 mm
12:05 AM 45.8°F7.7°C 42.7°F5.9°C 89% 1.2 mph N1.9 kmh N 2.3 mph3.7 kmh 29.76 in1007.8 mb - 0.00 in0.0 mm 0.01 in0.3 mm
12:00 AM 45.8°F7.7°C 42.7°F5.9°C 89% 2.3 mph N3.7 kmh N 3.5 mph5.6 kmh 29.76 in1007.8 mb - 0.01 in0.3 mm 0.01 in0.3 mm